Hlavní strana
METAR-TAF:

METAR-TAF

Letiště :

Memmingen, Německo

zeměpisná šířka: 47-59-33N, zeměpisná délka: 10-14-37E, výška: 633 m

Aktuální stav počasí

Zpráva byla vytvořena před 47 minutami, v 20:20 UTC
Severoseverovýchodní vítr 4 kt
Teplota 17°C
Vlhkost vzduchu 77%
Tlak 1022 hPa
Viditelnost 10 km a více
Žádná oblačnost pod 1500 m, nevyskytují se cumulonimby.

METAR: EDJA 262020Z 03004KT CAVOK 17/13 Q1022

Čas: 23:07 (21:07 UTC)


TAF: chybějící

Stav a předpovědi počasí z více než 4 000 letišť (zprávy METAR a TAF).

Červené a žluté tečky na mapě představují dostupné meteorologické stanice.

Když kurzor umístíte na tečku, zobrazí se název stanice.

Pak kliknutím zobrazíte stav a předpověď počasí.

Chcete-li změnit mapu, kliknutím na zelené tlačítko se znaménkem +mapu přiblížíte, kliknutím na zelené tlačítko se znaménkem – mapu oddálíte a kliknutím na zelené šipky přejdete na sousední mapy.


METAR-TAF: